PROFILE

 METAR AND TAF INFORMATION
ADDS - METARS form results

(1540 UTC 22 January 2019)
http://aviationweather.gov/metar/data/
 
DAAE 221500Z 26010KT 9999 SCT023 14/05 Q1011
TAF DAAE 221100Z 2212/2312 28014KT 9999 FEW015TCU BKN023 TEMPO 2212/2224 5000 -RA PROB30 TEMPO 2300/2310 2000 -RA BR BKN006 

 AIRPORT MAP

 RUNWAY INFORMATION
Runway 08 Runway length 7874 ft Runway width 148 ft
Runway elevation 20 ft Runway displaced threshold 0 ft Runway heading 80
Runway 26 Runway length 7874 ft Runway width 148 ft
Runway elevation 10 ft Runway displaced threshold 0 ft Runway heading 260

 AIRPORT FREQUENCIES
Type TWR Name BEJAIA TWR Frequency 118.9 MHZ

 AIRPORT NEAR NAVIGATION AIDS
Type NDB Name Bejaia Frequency 423 KHZ